sensor_id;sensor_type;location;lat;lon;timestamp;temperature;humidity
6480;DHT22;71753;48.772;9.148;2023-11-19T00:02:17;7.65;96.36
6480;DHT22;71753;48.772;9.148;2023-11-19T00:04:45;7.73;96.22
6480;DHT22;71753;48.772;9.148;2023-11-19T00:07:12;7.93;95.56
6480;DHT22;71753;48.772;9.148;2023-11-19T00:09:39;8.06;95.41
6480;DHT22;71753;48.772;9.148;2023-11-19T00:12:06;8.31;94.65
6480;DHT22;71753;48.772;9.148;2023-11-19T00:14:33;8.31;95.15
6480;DHT22;71753;48.772;9.148;2023-11-19T00:17:00;8.31;95.52
6480;DHT22;71753;48.772;9.148;2023-11-19T00:19:27;8.47;95.04
6480;DHT22;71753;48.772;9.148;2023-11-19T00:21:55;8.55;94.98
6480;DHT22;71753;48.772;9.148;2023-11-19T00:24:22;8.60;94.94
6480;DHT22;71753;48.772;9.148;2023-11-19T00:26:48;8.60;95.36
6480;DHT22;71753;48.772;9.148;2023-11-19T00:29:15;8.71;95.03
6480;DHT22;71753;48.772;9.148;2023-11-19T00:31:44;8.85;94.33
6480;DHT22;71753;48.772;9.148;2023-11-19T00:34:11;8.83;94.58
6480;DHT22;71753;48.772;9.148;2023-11-19T00:36:37;8.83;94.75
6480;DHT22;71753;48.772;9.148;2023-11-19T00:39:05;8.88;94.42
6480;DHT22;71753;48.772;9.148;2023-11-19T00:41:32;8.94;94.30
6480;DHT22;71753;48.772;9.148;2023-11-19T00:43:58;8.93;94.68
6480;DHT22;71753;48.772;9.148;2023-11-19T00:46:25;8.92;94.75
6480;DHT22;71753;48.772;9.148;2023-11-19T00:48:52;8.92;94.91
6480;DHT22;71753;48.772;9.148;2023-11-19T00:51:18;8.98;94.62
6480;DHT22;71753;48.772;9.148;2023-11-19T00:53:45;8.98;94.62
6480;DHT22;71753;48.772;9.148;2023-11-19T00:56:13;9.06;93.75
6480;DHT22;71753;48.772;9.148;2023-11-19T00:58:41;9.01;94.45
6480;DHT22;71753;48.772;9.148;2023-11-19T01:01:08;9.07;94.22
6480;DHT22;71753;48.772;9.148;2023-11-19T01:03:35;9.07;94.64
6480;DHT22;71753;48.772;9.148;2023-11-19T01:06:01;9.15;94.23
6480;DHT22;71753;48.772;9.148;2023-11-19T01:08:28;9.21;93.82
6480;DHT22;71753;48.772;9.148;2023-11-19T01:10:55;9.25;93.64
6480;DHT22;71753;48.772;9.148;2023-11-19T01:13:23;9.22;94.18
6480;DHT22;71753;48.772;9.148;2023-11-19T01:15:50;9.27;93.82
6480;DHT22;71753;48.772;9.148;2023-11-19T01:18:16;9.30;94.11
6480;DHT22;71753;48.772;9.148;2023-11-19T01:20:43;9.34;93.66
6480;DHT22;71753;48.772;9.148;2023-11-19T01:23:10;9.41;93.39
6480;DHT22;71753;48.772;9.148;2023-11-19T01:25:36;9.36;94.33
6480;DHT22;71753;48.772;9.148;2023-11-19T01:28:03;9.42;94.04
6480;DHT22;71753;48.772;9.148;2023-11-19T01:30:31;9.45;94.20
6480;DHT22;71753;48.772;9.148;2023-11-19T01:32:58;9.44;94.20
6480;DHT22;71753;48.772;9.148;2023-11-19T01:35:25;9.55;93.65
6480;DHT22;71753;48.772;9.148;2023-11-19T01:37:52;9.55;93.83
6480;DHT22;71753;48.772;9.148;2023-11-19T01:40:20;9.55;93.90
6480;DHT22;71753;48.772;9.148;2023-11-19T01:42:47;9.57;93.92
6480;DHT22;71753;48.772;9.148;2023-11-19T01:45:22;9.60;94.04
6480;DHT22;71753;48.772;9.148;2023-11-19T01:47:53;9.66;93.58
6480;DHT22;71753;48.772;9.148;2023-11-19T01:50:21;9.74;93.56
6480;DHT22;71753;48.772;9.148;2023-11-19T01:52:48;9.69;94.17
6480;DHT22;71753;48.772;9.148;2023-11-19T01:55:15;9.72;93.74
6480;DHT22;71753;48.772;9.148;2023-11-19T01:57:41;9.75;94.06
6480;DHT22;71753;48.772;9.148;2023-11-19T02:00:09;9.66;94.88
6480;DHT22;71753;48.772;9.148;2023-11-19T02:02:37;9.75;94.35
6480;DHT22;71753;48.772;9.148;2023-11-19T02:05:07;9.74;94.31
6480;DHT22;71753;48.772;9.148;2023-11-19T02:07:33;9.83;93.80
6480;DHT22;71753;48.772;9.148;2023-11-19T02:10:00;9.77;94.65
6480;DHT22;71753;48.772;9.148;2023-11-19T02:12:30;9.80;94.35
6480;DHT22;71753;48.772;9.148;2023-11-19T02:14:59;9.86;94.00
6480;DHT22;71753;48.772;9.148;2023-11-19T02:17:26;9.84;93.97
6480;DHT22;71753;48.772;9.148;2023-11-19T02:19:52;9.82;94.32
6480;DHT22;71753;48.772;9.148;2023-11-19T02:22:20;9.83;94.15
6480;DHT22;71753;48.772;9.148;2023-11-19T02:24:49;9.83;94.43
6480;DHT22;71753;48.772;9.148;2023-11-19T02:27:26;9.82;94.67
6480;DHT22;71753;48.772;9.148;2023-11-19T02:29:58;9.80;95.21
6480;DHT22;71753;48.772;9.148;2023-11-19T02:32:27;9.84;94.81
6480;DHT22;71753;48.772;9.148;2023-11-19T02:34:56;9.86;94.65
6480;DHT22;71753;48.772;9.148;2023-11-19T02:37:22;9.89;94.51
6480;DHT22;71753;48.772;9.148;2023-11-19T02:39:49;9.93;93.97
6480;DHT22;71753;48.772;9.148;2023-11-19T02:42:15;9.88;94.85
6480;DHT22;71753;48.772;9.148;2023-11-19T02:44:44;9.85;95.10
6480;DHT22;71753;48.772;9.148;2023-11-19T02:47:12;9.95;94.69
6480;DHT22;71753;48.772;9.148;2023-11-19T02:49:38;9.93;94.72
6480;DHT22;71753;48.772;9.148;2023-11-19T02:52:06;9.95;94.85
6480;DHT22;71753;48.772;9.148;2023-11-19T02:54:32;9.93;95.26
6480;DHT22;71753;48.772;9.148;2023-11-19T02:57:00;9.92;95.43
6480;DHT22;71753;48.772;9.148;2023-11-19T02:59:29;9.93;95.46
6480;DHT22;71753;48.772;9.148;2023-11-19T03:02:04;9.96;95.51
6480;DHT22;71753;48.772;9.148;2023-11-19T03:04:33;10.00;94.83
6480;DHT22;71753;48.772;9.148;2023-11-19T03:07:00;10.03;94.78
6480;DHT22;71753;48.772;9.148;2023-11-19T03:09:27;10.11;94.49
6480;DHT22;71753;48.772;9.148;2023-11-19T03:11:54;10.09;94.65
6480;DHT22;71753;48.772;9.148;2023-11-19T03:14:21;10.14;94.33
6480;DHT22;71753;48.772;9.148;2023-11-19T03:16:48;10.13;94.65
6480;DHT22;71753;48.772;9.148;2023-11-19T03:19:15;10.09;95.52
6480;DHT22;71753;48.772;9.148;2023-11-19T03:21:43;10.07;95.15
6480;DHT22;71753;48.772;9.148;2023-11-19T03:24:10;10.10;94.84
6480;DHT22;71753;48.772;9.148;2023-11-19T03:26:39;10.15;94.65
6480;DHT22;71753;48.772;9.148;2023-11-19T03:29:08;10.16;94.54
6480;DHT22;71753;48.772;9.148;2023-11-19T03:31:34;10.19;94.70
6480;DHT22;71753;48.772;9.148;2023-11-19T03:34:01;10.15;95.21
6480;DHT22;71753;48.772;9.148;2023-11-19T03:36:32;10.11;95.56
6480;DHT22;71753;48.772;9.148;2023-11-19T03:39:00;10.14;95.30
6480;DHT22;71753;48.772;9.148;2023-11-19T03:41:28;10.15;95.26
6480;DHT22;71753;48.772;9.148;2023-11-19T03:43:56;10.20;94.92
6480;DHT22;71753;48.772;9.148;2023-11-19T03:46:22;10.14;95.49
6480;DHT22;71753;48.772;9.148;2023-11-19T03:48:49;10.16;95.26
6480;DHT22;71753;48.772;9.148;2023-11-19T03:51:16;10.15;95.72
6480;DHT22;71753;48.772;9.148;2023-11-19T03:53:43;10.19;95.52
6480;DHT22;71753;48.772;9.148;2023-11-19T03:56:11;10.26;95.27
6480;DHT22;71753;48.772;9.148;2023-11-19T03:58:39;10.24;95.23
6480;DHT22;71753;48.772;9.148;2023-11-19T04:01:05;10.25;95.17
6480;DHT22;71753;48.772;9.148;2023-11-19T04:03:32;10.34;94.27
6480;DHT22;71753;48.772;9.148;2023-11-19T04:05:59;10.33;94.45
6480;DHT22;71753;48.772;9.148;2023-11-19T04:08:25;10.35;94.65
6480;DHT22;71753;48.772;9.148;2023-11-19T04:10:52;10.38;94.14
6480;DHT22;71753;48.772;9.148;2023-11-19T04:13:20;10.39;93.98
6480;DHT22;71753;48.772;9.148;2023-11-19T04:15:48;10.31;95.10
6480;DHT22;71753;48.772;9.148;2023-11-19T04:18:14;10.33;94.76
6480;DHT22;71753;48.772;9.148;2023-11-19T04:20:41;10.35;94.66
6480;DHT22;71753;48.772;9.148;2023-11-19T04:23:08;10.39;94.12
6480;DHT22;71753;48.772;9.148;2023-11-19T04:25:35;10.41;94.25
6480;DHT22;71753;48.772;9.148;2023-11-19T04:28:02;10.45;93.78
6480;DHT22;71753;48.772;9.148;2023-11-19T04:30:30;10.51;93.52
6480;DHT22;71753;48.772;9.148;2023-11-19T04:32:58;10.53;93.04
6480;DHT22;71753;48.772;9.148;2023-11-19T04:35:24;10.50;93.65
6480;DHT22;71753;48.772;9.148;2023-11-19T04:37:51;10.51;93.58
6480;DHT22;71753;48.772;9.148;2023-11-19T04:40:18;10.55;93.23
6480;DHT22;71753;48.772;9.148;2023-11-19T04:42:47;10.62;93.01
6480;DHT22;71753;48.772;9.148;2023-11-19T04:45:14;10.67;92.63
6480;DHT22;71753;48.772;9.148;2023-11-19T04:47:43;10.69;92.44
6480;DHT22;71753;48.772;9.148;2023-11-19T04:50:10;10.69;93.10
6480;DHT22;71753;48.772;9.148;2023-11-19T04:52:37;10.60;93.66
6480;DHT22;71753;48.772;9.148;2023-11-19T04:55:06;10.59;93.84
6480;DHT22;71753;48.772;9.148;2023-11-19T04:57:33;10.63;93.69
6480;DHT22;71753;48.772;9.148;2023-11-19T04:59:59;10.68;93.75
6480;DHT22;71753;48.772;9.148;2023-11-19T05:02:26;10.65;93.86
6480;DHT22;71753;48.772;9.148;2023-11-19T05:04:54;10.70;93.62
6480;DHT22;71753;48.772;9.148;2023-11-19T05:07:20;10.72;93.85
6480;DHT22;71753;48.772;9.148;2023-11-19T05:09:47;10.73;93.73
6480;DHT22;71753;48.772;9.148;2023-11-19T05:12:14;10.72;94.03
6480;DHT22;71753;48.772;9.148;2023-11-19T05:14:40;10.78;93.44
6480;DHT22;71753;48.772;9.148;2023-11-19T05:17:13;10.71;94.21
6480;DHT22;71753;48.772;9.148;2023-11-19T05:19:40;10.75;93.87
6480;DHT22;71753;48.772;9.148;2023-11-19T05:22:08;10.88;93.01
6480;DHT22;71753;48.772;9.148;2023-11-19T05:24:34;10.84;93.34
6480;DHT22;71753;48.772;9.148;2023-11-19T05:27:01;10.87;93.21
6480;DHT22;71753;48.772;9.148;2023-11-19T05:29:28;10.93;92.80
6480;DHT22;71753;48.772;9.148;2023-11-19T05:31:55;10.98;92.39
6480;DHT22;71753;48.772;9.148;2023-11-19T05:34:21;10.97;92.82
6480;DHT22;71753;48.772;9.148;2023-11-19T05:36:48;10.89;93.34
6480;DHT22;71753;48.772;9.148;2023-11-19T05:39:16;10.96;93.21
6480;DHT22;71753;48.772;9.148;2023-11-19T05:41:44;11.00;92.81
6480;DHT22;71753;48.772;9.148;2023-11-19T05:44:10;11.01;92.50
6480;DHT22;71753;48.772;9.148;2023-11-19T05:46:37;11.03;92.61
6480;DHT22;71753;48.772;9.148;2023-11-19T05:49:07;11.02;92.68
6480;DHT22;71753;48.772;9.148;2023-11-19T05:51:36;11.07;92.55
6480;DHT22;71753;48.772;9.148;2023-11-19T05:54:04;11.10;92.40
6480;DHT22;71753;48.772;9.148;2023-11-19T05:56:33;10.99;93.68
6480;DHT22;71753;48.772;9.148;2023-11-19T05:59:00;10.99;93.63
6480;DHT22;71753;48.772;9.148;2023-11-19T06:01:28;10.99;93.72
6480;DHT22;71753;48.772;9.148;2023-11-19T06:03:55;10.96;93.78
6480;DHT22;71753;48.772;9.148;2023-11-19T06:06:22;10.95;93.82
6480;DHT22;71753;48.772;9.148;2023-11-19T06:08:49;10.93;94.17
6480;DHT22;71753;48.772;9.148;2023-11-19T06:11:16;10.94;93.55
6480;DHT22;71753;48.772;9.148;2023-11-19T06:13:46;10.89;93.88
6480;DHT22;71753;48.772;9.148;2023-11-19T06:16:16;10.88;94.14
6480;DHT22;71753;48.772;9.148;2023-11-19T06:18:43;10.90;93.85
6480;DHT22;71753;48.772;9.148;2023-11-19T06:21:10;10.97;93.30
6480;DHT22;71753;48.772;9.148;2023-11-19T06:23:36;10.97;93.17
6480;DHT22;71753;48.772;9.148;2023-11-19T06:26:04;10.99;93.17
6480;DHT22;71753;48.772;9.148;2023-11-19T06:28:31;10.99;93.17
6480;DHT22;71753;48.772;9.148;2023-11-19T06:30:59;10.96;93.58
6480;DHT22;71753;48.772;9.148;2023-11-19T06:33:26;11.03;93.14
6480;DHT22;71753;48.772;9.148;2023-11-19T06:35:52;10.99;93.69
6480;DHT22;71753;48.772;9.148;2023-11-19T06:38:19;10.98;93.98
6480;DHT22;71753;48.772;9.148;2023-11-19T06:40:46;10.92;94.57
6480;DHT22;71753;48.772;9.148;2023-11-19T06:43:13;11.00;93.89
6480;DHT22;71753;48.772;9.148;2023-11-19T06:45:39;10.93;94.65
6480;DHT22;71753;48.772;9.148;2023-11-19T06:48:07;10.99;94.07
6480;DHT22;71753;48.772;9.148;2023-11-19T06:50:34;10.98;94.06
6480;DHT22;71753;48.772;9.148;2023-11-19T06:53:00;10.97;94.19
6480;DHT22;71753;48.772;9.148;2023-11-19T06:55:27;10.95;94.40
6480;DHT22;71753;48.772;9.148;2023-11-19T06:57:54;10.96;94.52
6480;DHT22;71753;48.772;9.148;2023-11-19T07:00:20;10.94;94.83
6480;DHT22;71753;48.772;9.148;2023-11-19T07:02:47;10.94;94.65
6480;DHT22;71753;48.772;9.148;2023-11-19T07:05:16;10.86;94.85
6480;DHT22;71753;48.772;9.148;2023-11-19T07:07:43;10.79;95.39
6480;DHT22;71753;48.772;9.148;2023-11-19T07:10:12;10.80;95.13
6480;DHT22;71753;48.772;9.148;2023-11-19T07:12:38;10.79;95.36
6480;DHT22;71753;48.772;9.148;2023-11-19T07:15:06;10.82;95.33
6480;DHT22;71753;48.772;9.148;2023-11-19T07:17:33;10.84;95.24
6480;DHT22;71753;48.772;9.148;2023-11-19T07:20:00;10.84;95.11
6480;DHT22;71753;48.772;9.148;2023-11-19T07:22:28;10.88;94.89
6480;DHT22;71753;48.772;9.148;2023-11-19T07:24:55;10.94;94.46
6480;DHT22;71753;48.772;9.148;2023-11-19T07:27:22;10.93;94.63
6480;DHT22;71753;48.772;9.148;2023-11-19T07:29:49;10.96;94.43
6480;DHT22;71753;48.772;9.148;2023-11-19T07:32:16;10.96;94.18
6480;DHT22;71753;48.772;9.148;2023-11-19T07:34:43;10.99;94.27
6480;DHT22;71753;48.772;9.148;2023-11-19T07:37:10;11.01;94.01
6480;DHT22;71753;48.772;9.148;2023-11-19T07:39:38;11.00;94.13
6480;DHT22;71753;48.772;9.148;2023-11-19T07:42:06;11.12;93.28
6480;DHT22;71753;48.772;9.148;2023-11-19T07:44:33;11.03;94.19
6480;DHT22;71753;48.772;9.148;2023-11-19T07:46:59;11.08;93.78
6480;DHT22;71753;48.772;9.148;2023-11-19T07:49:26;11.14;93.29
6480;DHT22;71753;48.772;9.148;2023-11-19T07:51:52;11.15;93.40
6480;DHT22;71753;48.772;9.148;2023-11-19T07:54:19;11.15;93.40
6480;DHT22;71753;48.772;9.148;2023-11-19T07:56:48;11.19;93.24
6480;DHT22;71753;48.772;9.148;2023-11-19T07:59:15;11.19;93.22
6480;DHT22;71753;48.772;9.148;2023-11-19T08:01:41;11.25;92.95
6480;DHT22;71753;48.772;9.148;2023-11-19T08:04:08;11.20;93.21
6480;DHT22;71753;48.772;9.148;2023-11-19T08:06:35;11.33;92.64
6480;DHT22;71753;48.772;9.148;2023-11-19T08:09:02;11.31;93.06
6480;DHT22;71753;48.772;9.148;2023-11-19T08:11:28;11.38;92.34
6480;DHT22;71753;48.772;9.148;2023-11-19T08:13:56;11.46;91.79
6480;DHT22;71753;48.772;9.148;2023-11-19T08:16:23;11.49;91.79
6480;DHT22;71753;48.772;9.148;2023-11-19T08:18:50;11.54;91.41
6480;DHT22;71753;48.772;9.148;2023-11-19T08:21:16;11.56;91.15
6480;DHT22;71753;48.772;9.148;2023-11-19T08:23:43;11.53;91.43
6480;DHT22;71753;48.772;9.148;2023-11-19T08:26:10;11.59;90.99
6480;DHT22;71753;48.772;9.148;2023-11-19T08:28:37;11.73;90.24
6480;DHT22;71753;48.772;9.148;2023-11-19T08:31:05;11.81;90.41
6480;DHT22;71753;48.772;9.148;2023-11-19T08:33:32;12.06;89.39
6480;DHT22;71753;48.772;9.148;2023-11-19T08:35:58;12.12;88.84
6480;DHT22;71753;48.772;9.148;2023-11-19T08:38:26;12.21;88.09
6480;DHT22;71753;48.772;9.148;2023-11-19T08:40:52;12.27;88.57
6480;DHT22;71753;48.772;9.148;2023-11-19T08:43:24;12.37;87.46
6480;DHT22;71753;48.772;9.148;2023-11-19T08:45:51;12.34;87.86
6480;DHT22;71753;48.772;9.148;2023-11-19T08:48:19;12.32;88.40
6480;DHT22;71753;48.772;9.148;2023-11-19T08:50:46;12.27;88.01
6480;DHT22;71753;48.772;9.148;2023-11-19T08:53:12;12.25;88.67
6480;DHT22;71753;48.772;9.148;2023-11-19T08:55:39;12.26;88.92
6480;DHT22;71753;48.772;9.148;2023-11-19T08:58:06;12.22;88.89
6480;DHT22;71753;48.772;9.148;2023-11-19T09:00:32;12.28;88.84
6480;DHT22;71753;48.772;9.148;2023-11-19T09:02:59;12.40;88.35
6480;DHT22;71753;48.772;9.148;2023-11-19T09:05:27;12.51;87.54
6480;DHT22;71753;48.772;9.148;2023-11-19T09:07:53;12.71;87.27
6480;DHT22;71753;48.772;9.148;2023-11-19T09:10:20;12.88;85.89
6480;DHT22;71753;48.772;9.148;2023-11-19T09:12:47;13.03;85.09
6480;DHT22;71753;48.772;9.148;2023-11-19T09:15:13;12.97;85.35
6480;DHT22;71753;48.772;9.148;2023-11-19T09:17:40;12.96;85.17
6480;DHT22;71753;48.772;9.148;2023-11-19T09:20:07;12.81;85.33
6480;DHT22;71753;48.772;9.148;2023-11-19T09:22:38;12.76;85.80
6480;DHT22;71753;48.772;9.148;2023-11-19T09:25:06;12.74;86.32
6480;DHT22;71753;48.772;9.148;2023-11-19T09:27:32;12.76;87.03
6480;DHT22;71753;48.772;9.148;2023-11-19T09:29:59;12.80;85.87
6480;DHT22;71753;48.772;9.148;2023-11-19T09:32:27;12.90;86.03
6480;DHT22;71753;48.772;9.148;2023-11-19T09:34:54;13.29;85.51
6480;DHT22;71753;48.772;9.148;2023-11-19T09:37:21;13.41;84.64
6480;DHT22;71753;48.772;9.148;2023-11-19T09:39:49;13.29;85.00
6480;DHT22;71753;48.772;9.148;2023-11-19T09:42:15;13.22;84.77
6480;DHT22;71753;48.772;9.148;2023-11-19T09:44:43;13.35;84.87
6480;DHT22;71753;48.772;9.148;2023-11-19T09:47:11;13.39;84.51
6480;DHT22;71753;48.772;9.148;2023-11-19T09:49:38;13.41;83.83
6480;DHT22;71753;48.772;9.148;2023-11-19T09:52:05;13.50;84.18
6480;DHT22;71753;48.772;9.148;2023-11-19T09:54:32;13.67;83.61
6480;DHT22;71753;48.772;9.148;2023-11-19T09:57:02;13.83;82.73
6480;DHT22;71753;48.772;9.148;2023-11-19T09:59:29;13.95;82.60
6480;DHT22;71753;48.772;9.148;2023-11-19T10:01:56;14.54;81.32
6480;DHT22;71753;48.772;9.148;2023-11-19T10:04:23;14.86;78.56
6480;DHT22;71753;48.772;9.148;2023-11-19T10:06:52;15.14;77.64
6480;DHT22;71753;48.772;9.148;2023-11-19T10:09:18;14.87;76.82
6480;DHT22;71753;48.772;9.148;2023-11-19T10:11:45;14.73;78.85
6480;DHT22;71753;48.772;9.148;2023-11-19T10:14:14;14.52;79.90
6480;DHT22;71753;48.772;9.148;2023-11-19T10:16:41;14.47;79.46
6480;DHT22;71753;48.772;9.148;2023-11-19T10:19:12;14.32;80.31
6480;DHT22;71753;48.772;9.148;2023-11-19T10:21:45;14.20;81.46
6480;DHT22;71753;48.772;9.148;2023-11-19T10:24:12;14.42;80.46
6480;DHT22;71753;48.772;9.148;2023-11-19T10:26:40;14.59;80.15
6480;DHT22;71753;48.772;9.148;2023-11-19T10:29:07;14.81;78.89
6480;DHT22;71753;48.772;9.148;2023-11-19T10:31:35;14.85;76.53
6480;DHT22;71753;48.772;9.148;2023-11-19T10:34:01;14.60;75.97
6480;DHT22;71753;48.772;9.148;2023-11-19T10:36:38;14.64;73.28
6480;DHT22;71753;48.772;9.148;2023-11-19T10:39:07;14.67;75.12
6480;DHT22;71753;48.772;9.148;2023-11-19T10:41:34;14.60;75.95
6480;DHT22;71753;48.772;9.148;2023-11-19T10:44:01;14.75;75.73
6480;DHT22;71753;48.772;9.148;2023-11-19T10:46:39;14.82;72.01
6480;DHT22;71753;48.772;9.148;2023-11-19T10:49:06;14.80;71.50
6480;DHT22;71753;48.772;9.148;2023-11-19T10:51:33;15.07;72.58
6480;DHT22;71753;48.772;9.148;2023-11-19T10:54:03;15.45;71.98
6480;DHT22;71753;48.772;9.148;2023-11-19T10:56:31;15.65;71.66
6480;DHT22;71753;48.772;9.148;2023-11-19T10:58:59;15.33;71.31
6480;DHT22;71753;48.772;9.148;2023-11-19T11:01:28;15.54;70.00
6480;DHT22;71753;48.772;9.148;2023-11-19T11:04:02;15.57;69.71
6480;DHT22;71753;48.772;9.148;2023-11-19T11:06:29;15.66;69.33
6480;DHT22;71753;48.772;9.148;2023-11-19T11:08:56;15.54;68.75
6480;DHT22;71753;48.772;9.148;2023-11-19T11:11:24;15.21;68.33
6480;DHT22;71753;48.772;9.148;2023-11-19T11:13:53;14.96;70.03
6480;DHT22;71753;48.772;9.148;2023-11-19T11:16:22;14.74;67.84
6480;DHT22;71753;48.772;9.148;2023-11-19T11:18:50;14.82;66.21
6480;DHT22;71753;48.772;9.148;2023-11-19T11:21:22;14.81;69.14
6480;DHT22;71753;48.772;9.148;2023-11-19T11:24:18;14.84;68.09
6480;DHT22;71753;48.772;9.148;2023-11-19T11:26:57;14.97;67.21
6480;DHT22;71753;48.772;9.148;2023-11-19T11:29:40;14.88;66.97
6480;DHT22;71753;48.772;9.148;2023-11-19T11:32:14;14.60;69.28
6480;DHT22;71753;48.772;9.148;2023-11-19T11:35:07;14.52;69.23
6480;DHT22;71753;48.772;9.148;2023-11-19T11:37:43;14.59;67.89
6480;DHT22;71753;48.772;9.148;2023-11-19T11:40:14;14.42;69.77
6480;DHT22;71753;48.772;9.148;2023-11-19T11:42:41;14.32;70.81
6480;DHT22;71753;48.772;9.148;2023-11-19T11:45:09;14.30;71.00
6480;DHT22;71753;48.772;9.148;2023-11-19T11:50:49;14.95;67.56
6480;DHT22;71753;48.772;9.148;2023-11-19T11:53:21;15.21;66.57
6480;DHT22;71753;48.772;9.148;2023-11-19T11:55:54;15.37;65.91
6480;DHT22;71753;48.772;9.148;2023-11-19T11:58:26;15.92;64.86
6480;DHT22;71753;48.772;9.148;2023-11-19T12:00:53;15.90;64.86
6480;DHT22;71753;48.772;9.148;2023-11-19T12:03:20;15.34;67.65
6480;DHT22;71753;48.772;9.148;2023-11-19T12:05:48;15.28;67.43
6480;DHT22;71753;48.772;9.148;2023-11-19T12:08:18;15.23;66.84
6480;DHT22;71753;48.772;9.148;2023-11-19T12:10:48;15.38;66.23
6480;DHT22;71753;48.772;9.148;2023-11-19T12:13:16;15.80;64.52
6480;DHT22;71753;48.772;9.148;2023-11-19T12:16:09;15.95;63.03
6480;DHT22;71753;48.772;9.148;2023-11-19T12:18:38;15.76;62.64
6480;DHT22;71753;48.772;9.148;2023-11-19T12:21:05;15.46;66.06
6480;DHT22;71753;48.772;9.148;2023-11-19T12:23:34;15.48;65.29
6480;DHT22;71753;48.772;9.148;2023-11-19T12:26:03;15.70;64.24
6480;DHT22;71753;48.772;9.148;2023-11-19T12:28:29;15.66;62.40
6480;DHT22;71753;48.772;9.148;2023-11-19T12:31:08;15.44;63.52
6480;DHT22;71753;48.772;9.148;2023-11-19T12:33:35;15.55;60.51
6480;DHT22;71753;48.772;9.148;2023-11-19T12:36:03;15.38;63.11
6480;DHT22;71753;48.772;9.148;2023-11-19T12:38:31;15.39;61.22
6480;DHT22;71753;48.772;9.148;2023-11-19T12:41:06;15.27;59.73
6480;DHT22;71753;48.772;9.148;2023-11-19T12:43:33;15.10;59.22
6480;DHT22;71753;48.772;9.148;2023-11-19T12:46:01;15.08;61.01
6480;DHT22;71753;48.772;9.148;2023-11-19T12:48:28;15.16;59.52
6480;DHT22;71753;48.772;9.148;2023-11-19T12:50:56;15.24;59.65
6480;DHT22;71753;48.772;9.148;2023-11-19T12:53:24;15.36;60.32
6480;DHT22;71753;48.772;9.148;2023-11-19T12:55:52;15.48;60.38
6480;DHT22;71753;48.772;9.148;2023-11-19T12:58:31;15.39;61.12
6480;DHT22;71753;48.772;9.148;2023-11-19T13:01:00;15.45;59.60
6480;DHT22;71753;48.772;9.148;2023-11-19T13:03:30;15.37;59.02
6480;DHT22;71753;48.772;9.148;2023-11-19T13:06:04;15.47;59.61
6480;DHT22;71753;48.772;9.148;2023-11-19T13:08:37;15.46;58.75
6480;DHT22;71753;48.772;9.148;2023-11-19T13:11:04;15.45;59.42
6480;DHT22;71753;48.772;9.148;2023-11-19T13:13:53;15.32;58.90
6480;DHT22;71753;48.772;9.148;2023-11-19T13:16:19;15.45;57.34
6480;DHT22;71753;48.772;9.148;2023-11-19T13:18:47;15.52;56.91
6480;DHT22;71753;48.772;9.148;2023-11-19T13:21:14;15.46;57.80
6480;DHT22;71753;48.772;9.148;2023-11-19T13:23:40;15.29;56.74
6480;DHT22;71753;48.772;9.148;2023-11-19T13:26:07;15.27;57.19
6480;DHT22;71753;48.772;9.148;2023-11-19T13:28:35;15.24;59.16
6480;DHT22;71753;48.772;9.148;2023-11-19T13:31:02;15.15;57.61
6480;DHT22;71753;48.772;9.148;2023-11-19T13:33:28;15.12;57.64
6480;DHT22;71753;48.772;9.148;2023-11-19T13:35:55;15.13;57.60
6480;DHT22;71753;48.772;9.148;2023-11-19T13:38:22;15.03;59.65
6480;DHT22;71753;48.772;9.148;2023-11-19T13:40:49;14.88;60.21
6480;DHT22;71753;48.772;9.148;2023-11-19T13:43:16;14.91;60.01
6480;DHT22;71753;48.772;9.148;2023-11-19T13:45:44;14.88;59.06
6480;DHT22;71753;48.772;9.148;2023-11-19T13:48:11;14.93;59.48
6480;DHT22;71753;48.772;9.148;2023-11-19T13:50:38;14.81;60.88
6480;DHT22;71753;48.772;9.148;2023-11-19T13:53:04;14.73;61.19
6480;DHT22;71753;48.772;9.148;2023-11-19T13:55:31;14.66;62.15
6480;DHT22;71753;48.772;9.148;2023-11-19T13:57:58;14.71;59.48
6480;DHT22;71753;48.772;9.148;2023-11-19T14:00:25;14.67;60.92
6480;DHT22;71753;48.772;9.148;2023-11-19T14:02:53;14.64;59.25
6480;DHT22;71753;48.772;9.148;2023-11-19T14:05:20;14.54;60.80
6480;DHT22;71753;48.772;9.148;2023-11-19T14:07:46;14.49;59.21
6480;DHT22;71753;48.772;9.148;2023-11-19T14:10:13;14.47;58.00
6480;DHT22;71753;48.772;9.148;2023-11-19T14:12:40;14.41;58.51
6480;DHT22;71753;48.772;9.148;2023-11-19T14:15:08;14.29;58.89
6480;DHT22;71753;48.772;9.148;2023-11-19T14:17:37;14.26;59.19
6480;DHT22;71753;48.772;9.148;2023-11-19T14:20:06;14.25;59.20
6480;DHT22;71753;48.772;9.148;2023-11-19T14:22:38;14.26;58.91
6480;DHT22;71753;48.772;9.148;2023-11-19T14:25:05;14.26;59.12
6480;DHT22;71753;48.772;9.148;2023-11-19T14:27:35;14.17;59.31
6480;DHT22;71753;48.772;9.148;2023-11-19T14:30:02;14.08;60.81
6480;DHT22;71753;48.772;9.148;2023-11-19T14:32:28;14.03;61.59
6480;DHT22;71753;48.772;9.148;2023-11-19T14:34:55;14.15;59.95
6480;DHT22;71753;48.772;9.148;2023-11-19T14:37:23;13.96;62.20
6480;DHT22;71753;48.772;9.148;2023-11-19T14:39:50;13.96;61.23
6480;DHT22;71753;48.772;9.148;2023-11-19T14:42:16;13.88;62.41
6480;DHT22;71753;48.772;9.148;2023-11-19T14:44:43;13.90;61.70
6480;DHT22;71753;48.772;9.148;2023-11-19T14:47:10;13.81;63.37
6480;DHT22;71753;48.772;9.148;2023-11-19T14:49:36;13.77;63.27
6480;DHT22;71753;48.772;9.148;2023-11-19T14:52:03;13.78;63.35
6480;DHT22;71753;48.772;9.148;2023-11-19T14:54:31;13.65;64.43
6480;DHT22;71753;48.772;9.148;2023-11-19T14:56:58;13.59;64.46
6480;DHT22;71753;48.772;9.148;2023-11-19T14:59:25;13.63;64.74
6480;DHT22;71753;48.772;9.148;2023-11-19T15:01:52;13.65;64.04
6480;DHT22;71753;48.772;9.148;2023-11-19T15:04:19;13.66;63.15
6480;DHT22;71753;48.772;9.148;2023-11-19T15:06:45;13.55;63.69
6480;DHT22;71753;48.772;9.148;2023-11-19T15:09:12;13.49;64.49
6480;DHT22;71753;48.772;9.148;2023-11-19T15:11:43;13.49;62.23
6480;DHT22;71753;48.772;9.148;2023-11-19T15:14:11;13.73;61.26
6480;DHT22;71753;48.772;9.148;2023-11-19T15:16:40;13.45;63.02
6480;DHT22;71753;48.772;9.148;2023-11-19T15:19:07;13.49;63.37
6480;DHT22;71753;48.772;9.148;2023-11-19T15:21:33;13.39;62.67
6480;DHT22;71753;48.772;9.148;2023-11-19T15:24:00;13.40;63.15
6480;DHT22;71753;48.772;9.148;2023-11-19T15:26:29;13.35;63.12
6480;DHT22;71753;48.772;9.148;2023-11-19T15:28:57;13.39;63.03
6480;DHT22;71753;48.772;9.148;2023-11-19T15:31:24;13.38;62.38
6480;DHT22;71753;48.772;9.148;2023-11-19T15:33:51;13.34;63.63
6480;DHT22;71753;48.772;9.148;2023-11-19T15:36:18;13.35;62.70
6480;DHT22;71753;48.772;9.148;2023-11-19T15:38:45;13.31;62.87
6480;DHT22;71753;48.772;9.148;2023-11-19T15:41:11;13.25;63.21
6480;DHT22;71753;48.772;9.148;2023-11-19T15:43:38;13.27;62.93
6480;DHT22;71753;48.772;9.148;2023-11-19T15:46:07;13.10;64.85
6480;DHT22;71753;48.772;9.148;2023-11-19T15:48:34;12.93;65.03
6480;DHT22;71753;48.772;9.148;2023-11-19T15:51:01;13.05;65.40
6480;DHT22;71753;48.772;9.148;2023-11-19T15:53:28;12.96;65.32
6480;DHT22;71753;48.772;9.148;2023-11-19T15:55:56;13.07;65.06
6480;DHT22;71753;48.772;9.148;2023-11-19T15:58:22;13.07;65.23